PKNJT WAYY-WADD
Flight info
| Callsign | PKNJT |
|---|---|
| Flight time | 3h 39m |
| Altitude | 30000 |
| Route | ESNES T18 EMONA W44 SULAR |
| Aircraft | B462/M-SDFGIRWY/LB1 |
Departure
| Time | 2026-05-05 22:25 |
|---|---|
| Airport | Mozes Kilangin Airport (WAYY) |
Arrival
| Time | 2026-05-06 02:04 |
|---|---|
| Airport | Denpasar I Gusti Ngurah Rai International Airport (WADD) |
| Time | Latitude | Longitude | Altitude | Speed | Heading |
|---|---|---|---|---|---|
| 2026-05-05 22:24 | -4.53947 | 137.03000 | 10974 ft | 210 kts | 337° |
| 2026-05-05 22:25 | -4.52822 | 137.02103 | 11771 ft | 211 kts | 301° |
| 2026-05-05 22:25 | -4.52439 | 137.00705 | 12587 ft | 211 kts | 265° |
| 2026-05-05 22:25 | -4.52774 | 136.99284 | 13419 ft | 209 kts | 254° |
| 2026-05-05 22:25 | -4.53217 | 136.97894 | 14177 ft | 208 kts | 252° |
| 2026-05-05 22:26 | -4.53690 | 136.96522 | 14807 ft | 211 kts | 252° |
| 2026-05-05 22:26 | -4.54143 | 136.95039 | 14931 ft | 241 kts | 260° |
| 2026-05-05 22:26 | -4.54310 | 136.93949 | 15449 ft | 231 kts | 265° |
| 2026-05-05 22:26 | -4.54439 | 136.91637 | 15794 ft | 267 kts | 271° |
| 2026-05-05 22:27 | -4.54457 | 136.89799 | 16693 ft | 261 kts | 261° |
| 2026-05-05 22:27 | -4.54991 | 136.88028 | 17177 ft | 276 kts | 250° |
| 2026-05-05 22:27 | -4.55728 | 136.86104 | 16985 ft | 315 kts | 249° |
| 2026-05-05 22:27 | -4.56588 | 136.83975 | 16858 ft | 343 kts | 248° |
| 2026-05-05 22:28 | -4.57531 | 136.81705 | 16953 ft | 357 kts | 248° |
| 2026-05-05 22:28 | -4.58179 | 136.80160 | 17386 ft | 356 kts | 248° |
| 2026-05-05 22:28 | -4.59135 | 136.77888 | 17739 ft | 360 kts | 248° |
| 2026-05-05 22:28 | -4.60115 | 136.75569 | 18154 ft | 362 kts | 247° |
| 2026-05-05 22:29 | -4.61170 | 136.73272 | 18492 ft | 364 kts | 246° |
| 2026-05-05 22:29 | -4.62145 | 136.70915 | 18841 ft | 366 kts | 251° |
| 2026-05-05 22:29 | -4.62924 | 136.68486 | 19186 ft | 367 kts | 255° |
| 2026-05-05 22:29 | -4.63566 | 136.66001 | 19525 ft | 369 kts | 257° |
| 2026-05-05 22:30 | -4.64123 | 136.63476 | 19877 ft | 371 kts | 259° |
| 2026-05-05 22:30 | -4.64634 | 136.60936 | 20219 ft | 373 kts | 259° |
| 2026-05-05 22:30 | -4.65132 | 136.58377 | 20570 ft | 375 kts | 259° |
| 2026-05-05 22:30 | -4.65623 | 136.55810 | 20931 ft | 376 kts | 260° |
| 2026-05-05 22:31 | -4.66112 | 136.53221 | 21275 ft | 378 kts | 259° |
| 2026-05-05 22:31 | -4.66597 | 136.50624 | 21599 ft | 380 kts | 260° |
| 2026-05-05 22:31 | -4.67084 | 136.48007 | 21920 ft | 382 kts | 260° |
| 2026-05-05 22:31 | -4.67572 | 136.45380 | 22239 ft | 385 kts | 260° |
| 2026-05-05 22:32 | -4.68059 | 136.42740 | 22556 ft | 387 kts | 260° |
| 2026-05-05 22:32 | -4.68551 | 136.40081 | 22873 ft | 389 kts | 259° |
| 2026-05-05 22:32 | -4.69067 | 136.37417 | 23185 ft | 391 kts | 259° |
| 2026-05-05 22:32 | -4.69582 | 136.34752 | 23564 ft | 390 kts | 259° |
| 2026-05-05 22:33 | -4.70091 | 136.32063 | 23805 ft | 392 kts | 260° |
| 2026-05-05 22:33 | -4.70605 | 136.29372 | 24056 ft | 394 kts | 259° |
| 2026-05-05 22:33 | -4.71125 | 136.26671 | 24310 ft | 396 kts | 260° |
| 2026-05-05 22:33 | -4.71643 | 136.23946 | 24567 ft | 398 kts | 260° |
| 2026-05-05 22:34 | -4.72161 | 136.21220 | 24815 ft | 399 kts | 260° |
| 2026-05-05 22:34 | -4.72684 | 136.18508 | 25053 ft | 401 kts | 259° |
| 2026-05-05 22:34 | -4.73216 | 136.15760 | 25263 ft | 404 kts | 260° |
| 2026-05-05 22:34 | -4.73746 | 136.12970 | 25470 ft | 406 kts | 259° |
| 2026-05-05 22:35 | -4.74265 | 136.10187 | 25722 ft | 408 kts | 260° |
| 2026-05-05 22:35 | -4.74798 | 136.07385 | 25964 ft | 409 kts | 259° |
| 2026-05-05 22:35 | -4.75342 | 136.04578 | 26184 ft | 411 kts | 259° |
| 2026-05-05 22:35 | -4.75879 | 136.01759 | 26413 ft | 412 kts | 259° |
| 2026-05-05 22:36 | -4.76417 | 135.98928 | 26650 ft | 413 kts | 259° |
| 2026-05-05 22:36 | -4.76963 | 135.96090 | 26879 ft | 415 kts | 259° |
| 2026-05-05 22:36 | -4.77506 | 135.93254 | 27118 ft | 416 kts | 260° |
| 2026-05-05 22:36 | -4.78036 | 135.90400 | 27342 ft | 417 kts | 259° |
| 2026-05-05 22:37 | -4.78578 | 135.87539 | 27557 ft | 418 kts | 259° |
| 2026-05-05 22:37 | -4.79129 | 135.84670 | 27756 ft | 420 kts | 259° |
| 2026-05-05 22:37 | -4.79685 | 135.81794 | 27956 ft | 421 kts | 259° |
| 2026-05-05 22:37 | -4.80245 | 135.78904 | 28159 ft | 422 kts | 259° |
| 2026-05-05 22:38 | -4.80801 | 135.76007 | 28350 ft | 424 kts | 259° |
| 2026-05-05 22:38 | -4.81352 | 135.73128 | 28510 ft | 426 kts | 259° |
| 2026-05-05 22:38 | -4.81905 | 135.70205 | 28702 ft | 427 kts | 259° |
| 2026-05-05 22:38 | -4.82460 | 135.67267 | 28909 ft | 428 kts | 259° |
| 2026-05-05 22:39 | -4.83015 | 135.64334 | 29075 ft | 430 kts | 259° |
| 2026-05-05 22:39 | -4.83576 | 135.61378 | 29239 ft | 431 kts | 259° |
| 2026-05-05 22:39 | -4.84138 | 135.58413 | 29446 ft | 432 kts | 259° |
| 2026-05-05 22:39 | -4.84695 | 135.55448 | 29587 ft | 434 kts | 259° |
| 2026-05-05 22:40 | -4.85250 | 135.52462 | 29736 ft | 436 kts | 259° |
| 2026-05-05 22:40 | -4.85807 | 135.49461 | 29838 ft | 439 kts | 259° |
| 2026-05-05 22:40 | -4.86366 | 135.46436 | 29884 ft | 443 kts | 259° |
| 2026-05-05 22:41 | -4.87549 | 135.40314 | 29915 ft | 451 kts | 259° |
| 2026-05-05 22:41 | -4.88722 | 135.34106 | 29920 ft | 459 kts | 261° |
| 2026-05-05 22:42 | -4.89941 | 135.27763 | 29918 ft | 466 kts | 261° |
| 2026-05-05 22:42 | -4.91156 | 135.21334 | 29918 ft | 472 kts | 260° |
| 2026-05-05 22:43 | -4.92386 | 135.14821 | 29918 ft | 477 kts | 260° |
| 2026-05-05 22:43 | -4.93642 | 135.08251 | 29918 ft | 481 kts | 261° |
| 2026-05-05 22:44 | -4.94891 | 135.01642 | 29918 ft | 484 kts | 261° |
| 2026-05-05 22:44 | -4.96132 | 134.95032 | 29914 ft | 486 kts | 260° |
| 2026-05-05 22:45 | -4.97398 | 134.88359 | 29911 ft | 489 kts | 260° |
| 2026-05-05 22:45 | -4.98671 | 134.81645 | 29912 ft | 491 kts | 259° |
| 2026-05-05 22:46 | -4.99948 | 134.74905 | 29915 ft | 492 kts | 260° |
| 2026-05-05 22:46 | -5.01232 | 134.68146 | 29913 ft | 494 kts | 259° |
| 2026-05-05 22:47 | -5.02504 | 134.61381 | 29912 ft | 494 kts | 261° |
| 2026-05-05 22:47 | -5.03782 | 134.54592 | 29914 ft | 495 kts | 260° |
| 2026-05-05 22:48 | -5.04933 | 134.47785 | 29914 ft | 494 kts | 265° |
| 2026-05-05 22:48 | -5.05368 | 134.40958 | 29914 ft | 493 kts | 269° |
| 2026-05-05 22:49 | -5.05518 | 134.34069 | 29910 ft | 493 kts | 270° |
| 2026-05-05 22:49 | -5.05664 | 134.27225 | 29905 ft | 484 kts | 270° |
| 2026-05-05 22:49 | -5.05756 | 134.23924 | 29893 ft | 460 kts | 269° |
| 2026-05-05 22:50 | -5.05853 | 134.20785 | 29890 ft | 443 kts | 270° |
| 2026-05-05 22:50 | -5.05946 | 134.17747 | 29886 ft | 429 kts | 270° |
| 2026-05-05 22:50 | -5.06035 | 134.14807 | 29882 ft | 413 kts | 268° |
| 2026-05-05 22:50 | -5.06120 | 134.11983 | 29880 ft | 398 kts | 270° |
| 2026-05-05 22:51 | -5.06196 | 134.09257 | 29878 ft | 383 kts | 271° |
| 2026-05-05 22:51 | -5.06271 | 134.06636 | 29877 ft | 369 kts | 270° |
| 2026-05-05 22:51 | -5.06344 | 134.04114 | 29875 ft | 354 kts | 270° |
| 2026-05-05 22:51 | -5.06419 | 134.01691 | 29872 ft | 340 kts | 268° |
| 2026-05-05 22:52 | -5.06487 | 133.99359 | 29864 ft | 327 kts | 270° |
| 2026-05-05 22:52 | -5.06562 | 133.97114 | 29865 ft | 316 kts | 269° |
| 2026-05-05 22:52 | -5.06622 | 133.94950 | 29865 ft | 305 kts | 269° |
| 2026-05-05 22:52 | -5.06683 | 133.92883 | 29866 ft | 295 kts | 270° |
| 2026-05-05 22:53 | -5.06737 | 133.90854 | 29871 ft | 287 kts | 270° |
| 2026-05-05 22:53 | -5.06795 | 133.88882 | 29871 ft | 279 kts | 270° |
| 2026-05-05 22:53 | -5.06856 | 133.86966 | 29870 ft | 271 kts | 269° |
| 2026-05-05 22:53 | -5.06912 | 133.85104 | 29865 ft | 263 kts | 269° |
| 2026-05-05 22:54 | -5.06972 | 133.83297 | 29866 ft | 255 kts | 270° |
| 2026-05-05 22:54 | -5.07025 | 133.81546 | 29864 ft | 247 kts | 270° |
| 2026-05-05 22:54 | -5.07090 | 133.79849 | 29814 ft | 241 kts | 269° |
| 2026-05-05 22:54 | -5.07163 | 133.78151 | 29457 ft | 249 kts | 269° |
| 2026-05-05 22:55 | -5.07189 | 133.76383 | 29112 ft | 255 kts | 273° |
| 2026-05-05 22:55 | -5.07096 | 133.74641 | 29144 ft | 244 kts | 278° |
| 2026-05-05 22:55 | -5.06809 | 133.72991 | 29062 ft | 240 kts | 287° |
| 2026-05-05 22:55 | -5.06218 | 133.71397 | 28681 ft | 248 kts | 300° |
| 2026-05-05 22:56 | -5.05229 | 133.70001 | 28428 ft | 248 kts | 318° |
| 2026-05-05 22:56 | -5.03810 | 133.69046 | 28332 ft | 241 kts | 344° |
| 2026-05-05 22:56 | -5.02157 | 133.68883 | 27997 ft | 245 kts | 15° |
| 2026-05-05 22:56 | -5.00697 | 133.69774 | 27461 ft | 257 kts | 58° |
| 2026-05-05 22:57 | -5.00356 | 133.71475 | 27047 ft | 266 kts | 110° |
| 2026-05-05 22:57 | -5.01680 | 133.72733 | 26252 ft | 288 kts | 174° |
| 2026-05-05 22:57 | -5.03449 | 133.71909 | 25192 ft | 309 kts | 250° |
| 2026-05-05 22:57 | -5.03002 | 133.69991 | 24369 ft | 307 kts | 334° |
| 2026-05-05 22:58 | -5.01128 | 133.70386 | 23437 ft | 313 kts | 66° |
| 2026-05-05 22:58 | -5.01768 | 133.72270 | 22200 ft | 334 kts | 163° |
| 2026-05-05 22:58 | -5.03580 | 133.71335 | 21317 ft | 328 kts | 268° |
| 2026-05-05 22:58 | -5.02766 | 133.69468 | 21962 ft | 242 kts | 316° |
| 2026-05-05 22:59 | -5.01611 | 133.68240 | 22835 ft | 253 kts | 314° |
| 2026-05-05 22:59 | -5.00344 | 133.66945 | 23388 ft | 235 kts | 314° |
| 2026-05-05 22:59 | -4.99400 | 133.65821 | 24670 ft | 193 kts | 310° |
| 2026-05-05 22:59 | -4.98592 | 133.64710 | 24720 ft | 214 kts | 307° |
| 2026-05-05 23:00 | -4.96203 | 133.61649 | 22906 ft | 329 kts | 313° |
| 2026-05-05 23:00 | -4.94660 | 133.59897 | 22932 ft | 341 kts | 307° |
| 2026-05-05 23:00 | -4.93650 | 133.57824 | 23867 ft | 320 kts | 291° |
| 2026-05-05 23:01 | -4.93130 | 133.55730 | 24779 ft | 301 kts | 271° |
| 2026-05-05 23:01 | -4.93524 | 133.53747 | 25609 ft | 285 kts | 242° |
| 2026-05-05 23:01 | -4.94750 | 133.52269 | 26325 ft | 272 kts | 213° |
| 2026-05-05 23:01 | -4.96414 | 133.51483 | 26959 ft | 259 kts | 199° |
| 2026-05-05 23:02 | -4.98109 | 133.50894 | 27388 ft | 256 kts | 199° |
| 2026-05-05 23:02 | -4.99782 | 133.50303 | 27753 ft | 256 kts | 200° |
| 2026-05-05 23:02 | -5.01431 | 133.49639 | 28089 ft | 255 kts | 204° |
| 2026-05-05 23:02 | -5.03013 | 133.48827 | 28378 ft | 255 kts | 216° |
| 2026-05-05 23:03 | -5.04337 | 133.47654 | 28675 ft | 254 kts | 229° |
| 2026-05-05 23:03 | -5.05430 | 133.46291 | 28948 ft | 253 kts | 237° |
| 2026-05-05 23:03 | -5.06332 | 133.44754 | 29262 ft | 252 kts | 245° |
| 2026-05-05 23:03 | -5.07007 | 133.43151 | 29491 ft | 252 kts | 252° |
| 2026-05-05 23:04 | -5.07505 | 133.41470 | 29747 ft | 253 kts | 257° |
| 2026-05-05 23:04 | -5.07868 | 133.39725 | 29864 ft | 259 kts | 261° |
| 2026-05-05 23:04 | -5.08127 | 133.37901 | 29918 ft | 269 kts | 264° |
| 2026-05-05 23:04 | -5.08312 | 133.35997 | 29944 ft | 280 kts | 266° |
| 2026-05-05 23:05 | -5.08444 | 133.34009 | 29969 ft | 291 kts | 267° |
| 2026-05-05 23:05 | -5.08534 | 133.31945 | 29976 ft | 302 kts | 268° |
| 2026-05-05 23:05 | -5.08666 | 133.27595 | 29971 ft | 322 kts | 269° |
| 2026-05-05 23:06 | -5.08783 | 133.22987 | 29954 ft | 338 kts | 269° |
| 2026-05-05 23:06 | -5.08890 | 133.18164 | 29942 ft | 353 kts | 268° |
| 2026-05-05 23:07 | -5.09046 | 133.13126 | 29934 ft | 369 kts | 268° |
| 2026-05-05 23:07 | -5.09181 | 133.07879 | 29927 ft | 383 kts | 268° |
| 2026-05-05 23:08 | -5.09346 | 133.02455 | 29924 ft | 394 kts | 268° |
| 2026-05-05 23:08 | -5.09502 | 132.96916 | 29914 ft | 404 kts | 268° |
| 2026-05-05 23:09 | -5.09663 | 132.91239 | 29908 ft | 411 kts | 268° |
| 2026-05-05 23:09 | -5.09829 | 132.85436 | 29904 ft | 416 kts | 268° |
| 2026-05-05 23:10 | -5.09983 | 132.79629 | 29903 ft | 422 kts | 268° |
| 2026-05-05 23:10 | -5.10148 | 132.73714 | 29905 ft | 427 kts | 268° |
| 2026-05-05 23:11 | -5.10311 | 132.67736 | 29903 ft | 431 kts | 268° |
| 2026-05-05 23:11 | -5.10466 | 132.61689 | 29904 ft | 435 kts | 268° |
| 2026-05-05 23:12 | -5.10615 | 132.55600 | 29905 ft | 438 kts | 268° |
| 2026-05-05 23:12 | -5.10796 | 132.49470 | 29904 ft | 441 kts | 268° |
| 2026-05-05 23:13 | -5.10918 | 132.44347 | 29904 ft | 443 kts | 268° |
| 2026-05-05 23:13 | -5.11092 | 132.38158 | 29904 ft | 445 kts | 269° |
| 2026-05-05 23:14 | -5.11268 | 132.30922 | 29904 ft | 447 kts | 268° |
| 2026-05-05 23:14 | -5.11420 | 132.25695 | 29905 ft | 448 kts | 269° |
| 2026-05-05 23:15 | -5.11582 | 132.19489 | 29903 ft | 448 kts | 269° |
| 2026-05-05 23:15 | -5.11746 | 132.13223 | 29904 ft | 449 kts | 269° |
| 2026-05-05 23:16 | -5.11887 | 132.06954 | 29902 ft | 450 kts | 269° |
| 2026-05-05 23:16 | -5.12052 | 132.00666 | 29903 ft | 451 kts | 269° |
| 2026-05-05 23:17 | -5.12234 | 131.94376 | 29906 ft | 451 kts | 269° |
| 2026-05-05 23:17 | -5.12383 | 131.88213 | 29907 ft | 452 kts | 269° |
| 2026-05-05 23:18 | -5.12549 | 131.81902 | 29904 ft | 452 kts | 269° |
| 2026-05-05 23:18 | -5.12706 | 131.75597 | 29903 ft | 453 kts | 269° |
| 2026-05-05 23:19 | -5.12879 | 131.69282 | 29901 ft | 453 kts | 269° |
| 2026-05-05 23:19 | -5.13035 | 131.62965 | 29903 ft | 453 kts | 269° |
| 2026-05-05 23:20 | -5.13205 | 131.56651 | 29906 ft | 453 kts | 269° |
| 2026-05-05 23:20 | -5.13408 | 131.50363 | 29905 ft | 453 kts | 268° |
| 2026-05-05 23:21 | -5.13620 | 131.44035 | 29904 ft | 453 kts | 269° |
| 2026-05-05 23:21 | -5.13790 | 131.37709 | 29907 ft | 453 kts | 269° |
| 2026-05-05 23:22 | -5.14003 | 131.31389 | 29908 ft | 453 kts | 269° |
| 2026-05-05 23:22 | -5.14183 | 131.25060 | 29908 ft | 454 kts | 268° |
| 2026-05-05 23:23 | -5.14387 | 131.18734 | 29909 ft | 454 kts | 268° |
| 2026-05-05 23:23 | -5.14565 | 131.12409 | 29907 ft | 454 kts | 269° |
| 2026-05-05 23:24 | -5.14772 | 131.06080 | 29908 ft | 454 kts | 269° |
| 2026-05-05 23:24 | -5.14948 | 130.99791 | 29911 ft | 454 kts | 268° |
| 2026-05-05 23:25 | -5.15147 | 130.93463 | 29911 ft | 454 kts | 268° |
| 2026-05-05 23:25 | -5.15331 | 130.87123 | 29910 ft | 454 kts | 268° |
| 2026-05-05 23:26 | -5.15534 | 130.80790 | 29907 ft | 454 kts | 269° |
| 2026-05-05 23:26 | -5.15700 | 130.74468 | 29909 ft | 454 kts | 268° |
| 2026-05-05 23:27 | -5.15907 | 130.68127 | 29912 ft | 454 kts | 268° |
| 2026-05-05 23:27 | -5.16074 | 130.61847 | 29912 ft | 454 kts | 268° |
| 2026-05-05 23:28 | -5.16277 | 130.55512 | 29916 ft | 454 kts | 269° |
| 2026-05-05 23:28 | -5.16442 | 130.49179 | 29914 ft | 454 kts | 269° |
| 2026-05-05 23:29 | -5.16653 | 130.42852 | 29916 ft | 454 kts | 268° |
| 2026-05-05 23:29 | -5.16825 | 130.36527 | 29914 ft | 453 kts | 268° |
| 2026-05-05 23:30 | -5.17020 | 130.30204 | 29916 ft | 453 kts | 268° |
| 2026-05-05 23:30 | -5.17180 | 130.23884 | 29918 ft | 453 kts | 269° |
| 2026-05-05 23:31 | -5.17383 | 130.17608 | 29916 ft | 452 kts | 268° |
| 2026-05-05 23:31 | -5.17545 | 130.11301 | 29915 ft | 452 kts | 268° |
| 2026-05-05 23:32 | -5.17747 | 130.05001 | 29915 ft | 452 kts | 268° |
| 2026-05-05 23:32 | -5.17900 | 129.98703 | 29917 ft | 452 kts | 268° |
| 2026-05-05 23:33 | -5.18100 | 129.92398 | 29919 ft | 452 kts | 268° |
| 2026-05-05 23:33 | -5.18254 | 129.86093 | 29918 ft | 452 kts | 269° |
| 2026-05-05 23:34 | -5.18452 | 129.79835 | 29918 ft | 451 kts | 268° |
| 2026-05-05 23:34 | -5.18611 | 129.73539 | 29918 ft | 451 kts | 268° |
| 2026-05-05 23:35 | -5.18806 | 129.67244 | 29917 ft | 451 kts | 269° |
| 2026-05-05 23:35 | -5.18960 | 129.60949 | 29918 ft | 451 kts | 268° |
| 2026-05-05 23:36 | -5.19162 | 129.54656 | 29918 ft | 451 kts | 268° |
| 2026-05-05 23:36 | -5.19310 | 129.48361 | 29921 ft | 451 kts | 269° |
| 2026-05-05 23:37 | -5.19509 | 129.42068 | 29921 ft | 451 kts | 268° |
| 2026-05-05 23:37 | -5.19662 | 129.35771 | 29924 ft | 451 kts | 269° |
| 2026-05-05 23:38 | -5.19847 | 129.29513 | 29922 ft | 451 kts | 268° |
| 2026-05-05 23:38 | -5.20016 | 129.23181 | 29922 ft | 452 kts | 269° |
| 2026-05-05 23:39 | -5.20190 | 129.16926 | 29924 ft | 451 kts | 268° |
| 2026-05-05 23:39 | -5.20353 | 129.10622 | 29926 ft | 452 kts | 269° |
| 2026-05-05 23:40 | -5.20542 | 129.04317 | 29918 ft | 452 kts | 268° |
| 2026-05-05 23:40 | -5.20694 | 128.98019 | 29920 ft | 452 kts | 268° |
| 2026-05-05 23:41 | -5.20876 | 128.91714 | 29921 ft | 451 kts | 269° |
| 2026-05-05 23:41 | -5.21035 | 128.85457 | 29936 ft | 452 kts | 268° |
| 2026-05-05 23:42 | -5.21207 | 128.79156 | 29931 ft | 452 kts | 269° |
| 2026-05-05 23:42 | -5.21380 | 128.72851 | 29924 ft | 452 kts | 268° |
| 2026-05-05 23:43 | -5.21530 | 128.66546 | 29923 ft | 452 kts | 268° |
| 2026-05-05 23:43 | -5.21719 | 128.60238 | 29922 ft | 452 kts | 268° |
| 2026-05-05 23:44 | -5.21869 | 128.53937 | 29930 ft | 452 kts | 268° |
| 2026-05-05 23:44 | -5.22032 | 128.47634 | 29924 ft | 452 kts | 268° |
| 2026-05-05 23:45 | -5.22205 | 128.41330 | 29922 ft | 452 kts | 269° |
| 2026-05-05 23:45 | -5.22364 | 128.35024 | 29914 ft | 452 kts | 268° |
| 2026-05-05 23:46 | -5.22525 | 128.28730 | 29917 ft | 451 kts | 269° |
| 2026-05-05 23:46 | -5.22690 | 128.22434 | 29917 ft | 451 kts | 268° |
| 2026-05-05 23:47 | -5.22850 | 128.16146 | 29920 ft | 451 kts | 269° |
| 2026-05-05 23:47 | -5.23016 | 128.09888 | 29920 ft | 451 kts | 268° |
| 2026-05-05 23:48 | -5.23168 | 128.03593 | 29917 ft | 451 kts | 269° |
| 2026-05-05 23:48 | -5.23334 | 127.97288 | 29919 ft | 451 kts | 268° |
| 2026-05-05 23:49 | -5.23488 | 127.90982 | 29919 ft | 451 kts | 268° |
| 2026-05-05 23:49 | -5.23651 | 127.84684 | 29920 ft | 452 kts | 268° |
| 2026-05-05 23:50 | -5.23807 | 127.78385 | 29921 ft | 452 kts | 269° |
| 2026-05-05 23:50 | -5.23909 | 127.72114 | 29922 ft | 452 kts | 269° |
| 2026-05-05 23:51 | -5.23942 | 127.65803 | 29921 ft | 452 kts | 270° |
| 2026-05-05 23:51 | -5.24021 | 127.59491 | 29921 ft | 452 kts | 269° |
| 2026-05-05 23:52 | -5.24063 | 127.53177 | 29921 ft | 453 kts | 269° |
| 2026-05-05 23:52 | -5.24139 | 127.46855 | 29918 ft | 453 kts | 269° |
| 2026-05-05 23:53 | -5.24184 | 127.40540 | 29917 ft | 453 kts | 269° |
| 2026-05-05 23:53 | -5.24256 | 127.34230 | 29923 ft | 453 kts | 269° |
| 2026-05-05 23:54 | -5.24308 | 127.27920 | 29918 ft | 453 kts | 269° |
| 2026-05-05 23:54 | -5.24375 | 127.21603 | 29917 ft | 453 kts | 269° |
| 2026-05-05 23:55 | -5.24424 | 127.15285 | 29926 ft | 453 kts | 269° |
| 2026-05-05 23:55 | -5.24491 | 127.08959 | 29923 ft | 453 kts | 270° |
| 2026-05-05 23:56 | -5.24536 | 127.02638 | 29925 ft | 453 kts | 269° |
| 2026-05-05 23:56 | -5.24608 | 126.96321 | 29926 ft | 453 kts | 269° |
| 2026-05-05 23:57 | -5.24646 | 126.90045 | 29921 ft | 453 kts | 270° |
| 2026-05-05 23:57 | -5.24721 | 126.83722 | 29923 ft | 453 kts | 269° |
| 2026-05-05 23:58 | -5.24762 | 126.77401 | 29919 ft | 453 kts | 270° |
| 2026-05-05 23:58 | -5.24816 | 126.71085 | 29920 ft | 453 kts | 269° |
| 2026-05-05 23:59 | -5.24861 | 126.64762 | 29922 ft | 453 kts | 270° |
| 2026-05-05 23:59 | -5.24934 | 126.58444 | 29923 ft | 453 kts | 269° |
| 2026-05-06 00:00 | -5.24987 | 126.52163 | 29924 ft | 453 kts | 270° |
| 2026-05-06 00:00 | -5.25024 | 126.46864 | 29922 ft | 453 kts | 270° |
| 2026-05-06 00:01 | -5.25069 | 126.39518 | 29920 ft | 453 kts | 269° |
| 2026-05-06 00:01 | -5.25143 | 126.33192 | 29924 ft | 453 kts | 269° |
| 2026-05-06 00:02 | -5.25179 | 126.27893 | 29924 ft | 453 kts | 269° |
| 2026-05-06 00:02 | -5.25217 | 126.21576 | 29925 ft | 453 kts | 270° |
| 2026-05-06 00:03 | -5.25265 | 126.15247 | 29924 ft | 453 kts | 269° |
| 2026-05-06 00:03 | -5.25328 | 126.08934 | 29923 ft | 453 kts | 269° |
| 2026-05-06 00:04 | -5.25370 | 126.02611 | 29923 ft | 453 kts | 269° |
| 2026-05-06 00:04 | -5.25410 | 125.96290 | 29919 ft | 453 kts | 269° |
| 2026-05-06 00:05 | -5.25468 | 125.86860 | 29923 ft | 453 kts | 269° |
| 2026-05-06 00:06 | -5.25534 | 125.80541 | 29920 ft | 453 kts | 269° |
| 2026-05-06 00:06 | -5.25578 | 125.74215 | 29919 ft | 453 kts | 269° |
| 2026-05-06 00:07 | -5.25611 | 125.67890 | 29918 ft | 454 kts | 269° |
| 2026-05-06 00:07 | -5.25660 | 125.61561 | 29915 ft | 454 kts | 270° |
| 2026-05-06 00:08 | -5.25714 | 125.55261 | 29924 ft | 454 kts | 269° |
| 2026-05-06 00:08 | -5.25757 | 125.48931 | 29921 ft | 454 kts | 269° |
| 2026-05-06 00:09 | -5.25810 | 125.42589 | 29921 ft | 455 kts | 269° |
| 2026-05-06 00:09 | -5.25846 | 125.36243 | 29918 ft | 455 kts | 269° |
| 2026-05-06 00:10 | -5.25886 | 125.29896 | 29916 ft | 455 kts | 269° |
| 2026-05-06 00:10 | -5.25923 | 125.23552 | 29917 ft | 455 kts | 269° |
| 2026-05-06 00:11 | -5.25976 | 125.17198 | 29916 ft | 455 kts | 269° |
| 2026-05-06 00:11 | -5.26016 | 125.10851 | 29921 ft | 455 kts | 269° |
| 2026-05-06 00:12 | -5.26042 | 125.04505 | 29926 ft | 455 kts | 269° |
| 2026-05-06 00:12 | -5.26092 | 124.98156 | 29921 ft | 455 kts | 269° |
| 2026-05-06 00:13 | -5.26125 | 124.91816 | 29923 ft | 455 kts | 269° |
| 2026-05-06 00:13 | -5.26175 | 124.85480 | 29923 ft | 454 kts | 269° |
| 2026-05-06 00:14 | -5.26207 | 124.79140 | 29923 ft | 454 kts | 269° |
| 2026-05-06 00:14 | -5.26248 | 124.72843 | 29917 ft | 454 kts | 269° |
| 2026-05-06 00:15 | -5.26276 | 124.66517 | 29916 ft | 454 kts | 268° |
| 2026-05-06 00:15 | -5.26314 | 124.60179 | 29923 ft | 453 kts | 269° |
| 2026-05-06 00:16 | -5.26340 | 124.53846 | 29918 ft | 453 kts | 268° |
| 2026-05-06 00:16 | -5.26381 | 124.47517 | 29923 ft | 453 kts | 269° |
| 2026-05-06 00:17 | -5.26416 | 124.41192 | 29920 ft | 453 kts | 269° |
| 2026-05-06 00:17 | -5.26443 | 124.34869 | 29921 ft | 453 kts | 268° |
| 2026-05-06 00:18 | -5.26484 | 124.28555 | 29924 ft | 453 kts | 269° |
| 2026-05-06 00:18 | -5.26802 | 124.22257 | 29919 ft | 451 kts | 259° |
| 2026-05-06 00:19 | -5.28490 | 124.16263 | 29924 ft | 449 kts | 248° |
| 2026-05-06 00:19 | -5.30765 | 124.10431 | 29928 ft | 449 kts | 246° |
| 2026-05-06 00:20 | -5.33115 | 124.04632 | 29920 ft | 449 kts | 247° |
| 2026-05-06 00:20 | -5.35432 | 123.98815 | 29920 ft | 449 kts | 247° |
| 2026-05-06 00:21 | -5.37708 | 123.92986 | 29926 ft | 448 kts | 248° |
| 2026-05-06 00:21 | -5.39972 | 123.87165 | 29922 ft | 447 kts | 248° |
| 2026-05-06 00:22 | -5.42228 | 123.81357 | 29928 ft | 446 kts | 248° |
| 2026-05-06 00:22 | -5.44492 | 123.75558 | 29925 ft | 446 kts | 247° |
| 2026-05-06 00:23 | -5.46733 | 123.69796 | 29918 ft | 445 kts | 248° |
| 2026-05-06 00:23 | -5.48977 | 123.64007 | 29917 ft | 445 kts | 248° |
| 2026-05-06 00:24 | -5.51237 | 123.58217 | 29921 ft | 445 kts | 247° |
| 2026-05-06 00:24 | -5.53490 | 123.52431 | 29919 ft | 445 kts | 248° |
| 2026-05-06 00:25 | -5.55746 | 123.46646 | 29921 ft | 445 kts | 248° |
| 2026-05-06 00:25 | -5.58001 | 123.40864 | 29919 ft | 445 kts | 248° |
| 2026-05-06 00:26 | -5.60248 | 123.35077 | 29921 ft | 445 kts | 247° |
| 2026-05-06 00:26 | -5.62493 | 123.29286 | 29922 ft | 445 kts | 248° |
| 2026-05-06 00:27 | -5.64744 | 123.23503 | 29923 ft | 445 kts | 248° |
| 2026-05-06 00:27 | -5.66973 | 123.17752 | 29923 ft | 445 kts | 248° |
| 2026-05-06 00:28 | -5.69219 | 123.11961 | 29919 ft | 445 kts | 248° |
| 2026-05-06 00:28 | -5.71465 | 123.06180 | 29921 ft | 445 kts | 248° |
| 2026-05-06 00:29 | -5.73717 | 123.00386 | 29927 ft | 445 kts | 247° |
| 2026-05-06 00:29 | -5.75954 | 122.94595 | 29918 ft | 444 kts | 247° |
| 2026-05-06 00:30 | -5.78185 | 122.88807 | 29925 ft | 444 kts | 246° |
| 2026-05-06 00:30 | -5.80421 | 122.83028 | 29924 ft | 443 kts | 247° |
| 2026-05-06 00:31 | -5.82664 | 122.77261 | 29926 ft | 443 kts | 247° |
| 2026-05-06 00:31 | -5.84899 | 122.71501 | 29928 ft | 443 kts | 247° |
| 2026-05-06 00:32 | -5.87141 | 122.65736 | 29919 ft | 443 kts | 247° |
| 2026-05-06 00:32 | -5.89373 | 122.59975 | 29923 ft | 442 kts | 246° |
| 2026-05-06 00:33 | -5.91580 | 122.54243 | 29920 ft | 442 kts | 248° |
| 2026-05-06 00:33 | -5.93805 | 122.48482 | 29921 ft | 442 kts | 247° |
| 2026-05-06 00:34 | -5.96040 | 122.42726 | 29919 ft | 442 kts | 248° |
| 2026-05-06 00:34 | -5.98266 | 122.36967 | 29925 ft | 442 kts | 248° |
| 2026-05-06 00:35 | -6.00487 | 122.31212 | 29922 ft | 442 kts | 247° |
| 2026-05-06 00:35 | -6.02708 | 122.25444 | 29923 ft | 442 kts | 246° |
| 2026-05-06 00:36 | -6.04928 | 122.19688 | 29923 ft | 442 kts | 247° |
| 2026-05-06 00:36 | -6.07148 | 122.13927 | 29923 ft | 442 kts | 247° |
| 2026-05-06 00:37 | -6.09376 | 122.08167 | 29928 ft | 442 kts | 246° |
| 2026-05-06 00:37 | -6.11601 | 122.02416 | 29921 ft | 442 kts | 248° |
| 2026-05-06 00:38 | -6.13816 | 121.96655 | 29916 ft | 442 kts | 247° |
| 2026-05-06 00:38 | -6.16017 | 121.90936 | 29926 ft | 442 kts | 246° |
| 2026-05-06 00:39 | -6.18233 | 121.85175 | 29929 ft | 442 kts | 247° |
| 2026-05-06 00:39 | -6.20500 | 121.79445 | 29915 ft | 442 kts | 246° |
| 2026-05-06 00:40 | -6.22849 | 121.73745 | 29922 ft | 441 kts | 245° |
| 2026-05-06 00:40 | -6.25179 | 121.68067 | 29919 ft | 441 kts | 246° |
| 2026-05-06 00:41 | -6.27505 | 121.62355 | 29920 ft | 441 kts | 246° |
| 2026-05-06 00:41 | -6.29828 | 121.56648 | 29922 ft | 441 kts | 246° |
| 2026-05-06 00:42 | -6.32167 | 121.50929 | 29932 ft | 441 kts | 246° |
| 2026-05-06 00:42 | -6.34496 | 121.45217 | 29925 ft | 442 kts | 246° |
| 2026-05-06 00:43 | -6.36823 | 121.39510 | 29918 ft | 441 kts | 245° |
| 2026-05-06 00:43 | -6.39151 | 121.33790 | 29926 ft | 441 kts | 246° |
| 2026-05-06 00:44 | -6.41480 | 121.28077 | 29923 ft | 441 kts | 246° |
| 2026-05-06 00:44 | -6.43802 | 121.22369 | 29924 ft | 441 kts | 246° |
| 2026-05-06 00:45 | -6.46128 | 121.16659 | 29921 ft | 441 kts | 245° |
| 2026-05-06 00:45 | -6.48442 | 121.10991 | 29920 ft | 441 kts | 246° |
| 2026-05-06 00:46 | -6.50764 | 121.05288 | 29927 ft | 441 kts | 246° |
| 2026-05-06 00:46 | -6.53075 | 120.99584 | 29927 ft | 440 kts | 246° |
| 2026-05-06 00:47 | -6.55377 | 120.93875 | 29919 ft | 440 kts | 246° |
| 2026-05-06 00:47 | -6.57685 | 120.88173 | 29919 ft | 440 kts | 246° |
| 2026-05-06 00:48 | -6.59627 | 120.83407 | 29926 ft | 440 kts | 246° |
| 2026-05-06 00:48 | -6.61922 | 120.77741 | 29923 ft | 440 kts | 246° |
| 2026-05-06 00:49 | -6.64243 | 120.72052 | 29922 ft | 440 kts | 246° |
| 2026-05-06 00:49 | -6.66551 | 120.66349 | 29925 ft | 439 kts | 246° |
| 2026-05-06 00:50 | -6.68854 | 120.60652 | 29921 ft | 439 kts | 246° |
| 2026-05-06 00:50 | -6.71165 | 120.54960 | 29914 ft | 439 kts | 246° |
| 2026-05-06 00:51 | -6.73467 | 120.49270 | 29920 ft | 439 kts | 246° |
| 2026-05-06 00:51 | -6.75780 | 120.43570 | 29926 ft | 439 kts | 246° |
| 2026-05-06 00:52 | -6.78067 | 120.37919 | 29924 ft | 439 kts | 246° |
| 2026-05-06 00:52 | -6.80379 | 120.32227 | 29923 ft | 439 kts | 246° |
| 2026-05-06 00:53 | -6.82695 | 120.26526 | 29917 ft | 440 kts | 246° |
| 2026-05-06 00:53 | -6.85008 | 120.20830 | 29924 ft | 440 kts | 246° |
| 2026-05-06 00:54 | -6.87322 | 120.15134 | 29919 ft | 440 kts | 246° |
| 2026-05-06 00:54 | -6.89635 | 120.09437 | 29923 ft | 440 kts | 246° |
| 2026-05-06 00:55 | -6.91942 | 120.03730 | 29923 ft | 439 kts | 247° |
| 2026-05-06 00:55 | -6.94082 | 119.98003 | 29923 ft | 439 kts | 249° |
| 2026-05-06 00:56 | -6.96154 | 119.92221 | 29915 ft | 439 kts | 249° |
| 2026-05-06 00:56 | -6.98261 | 119.86456 | 29915 ft | 439 kts | 249° |
| 2026-05-06 00:57 | -7.00368 | 119.80697 | 29920 ft | 438 kts | 249° |
| 2026-05-06 00:57 | -7.02449 | 119.74929 | 29919 ft | 438 kts | 249° |
| 2026-05-06 00:58 | -7.04559 | 119.69166 | 29921 ft | 438 kts | 249° |
| 2026-05-06 00:58 | -7.06635 | 119.63399 | 29920 ft | 438 kts | 249° |
| 2026-05-06 00:59 | -7.08739 | 119.57644 | 29917 ft | 438 kts | 249° |
| 2026-05-06 00:59 | -7.10820 | 119.51879 | 29920 ft | 438 kts | 249° |
| 2026-05-06 01:00 | -7.12920 | 119.46115 | 29917 ft | 438 kts | 249° |
| 2026-05-06 01:00 | -7.15002 | 119.40363 | 29920 ft | 438 kts | 249° |
| 2026-05-06 01:01 | -7.17080 | 119.34639 | 29917 ft | 437 kts | 249° |
| 2026-05-06 01:01 | -7.19158 | 119.28880 | 29922 ft | 437 kts | 249° |
| 2026-05-06 01:02 | -7.21250 | 119.23125 | 29918 ft | 437 kts | 249° |
| 2026-05-06 01:02 | -7.23325 | 119.17364 | 29919 ft | 437 kts | 249° |
| 2026-05-06 01:03 | -7.25423 | 119.11606 | 29924 ft | 437 kts | 249° |
| 2026-05-06 01:03 | -7.27485 | 119.05865 | 29916 ft | 437 kts | 249° |
| 2026-05-06 01:04 | -7.29580 | 119.00117 | 29920 ft | 437 kts | 249° |
| 2026-05-06 01:04 | -7.31575 | 118.94546 | 29914 ft | 437 kts | 249° |
| 2026-05-06 01:05 | -7.33639 | 118.88785 | 29915 ft | 437 kts | 249° |
| 2026-05-06 01:05 | -7.35726 | 118.83035 | 29921 ft | 437 kts | 249° |
| 2026-05-06 01:06 | -7.37789 | 118.77321 | 29921 ft | 437 kts | 249° |
| 2026-05-06 01:06 | -7.39863 | 118.71567 | 29923 ft | 437 kts | 249° |
| 2026-05-06 01:07 | -7.42048 | 118.65857 | 29920 ft | 437 kts | 248° |
| 2026-05-06 01:07 | -7.44265 | 118.60160 | 29920 ft | 437 kts | 248° |
| 2026-05-06 01:08 | -7.46447 | 118.54450 | 29916 ft | 437 kts | 248° |
| 2026-05-06 01:08 | -7.48640 | 118.48743 | 29914 ft | 437 kts | 248° |
| 2026-05-06 01:09 | -7.50812 | 118.43030 | 29916 ft | 436 kts | 248° |
| 2026-05-06 01:09 | -7.53011 | 118.37319 | 29920 ft | 437 kts | 248° |
| 2026-05-06 01:10 | -7.55192 | 118.31610 | 29910 ft | 436 kts | 248° |
| 2026-05-06 01:10 | -7.57350 | 118.25936 | 29911 ft | 436 kts | 248° |
| 2026-05-06 01:11 | -7.59534 | 118.20229 | 29917 ft | 436 kts | 248° |
| 2026-05-06 01:11 | -7.61723 | 118.14517 | 29915 ft | 436 kts | 248° |
| 2026-05-06 01:12 | -7.63890 | 118.08803 | 29919 ft | 436 kts | 248° |
| 2026-05-06 01:12 | -7.66066 | 118.03098 | 29917 ft | 436 kts | 248° |
| 2026-05-06 01:13 | -7.68255 | 117.97389 | 29916 ft | 436 kts | 248° |
| 2026-05-06 01:13 | -7.70417 | 117.91670 | 29921 ft | 436 kts | 248° |
| 2026-05-06 01:14 | -7.73677 | 117.83091 | 29917 ft | 436 kts | 249° |
| 2026-05-06 01:14 | -7.75858 | 117.77382 | 29918 ft | 436 kts | 248° |
| 2026-05-06 01:15 | -7.78018 | 117.71665 | 29920 ft | 436 kts | 248° |
| 2026-05-06 01:15 | -7.80201 | 117.65961 | 29921 ft | 436 kts | 249° |
| 2026-05-06 01:16 | -7.82357 | 117.60254 | 29920 ft | 436 kts | 248° |
| 2026-05-06 01:16 | -7.84522 | 117.54581 | 29919 ft | 436 kts | 249° |
| 2026-05-06 01:17 | -7.86687 | 117.48872 | 29917 ft | 436 kts | 248° |
| 2026-05-06 01:17 | -7.88853 | 117.43172 | 29915 ft | 436 kts | 249° |
| 2026-05-06 01:18 | -7.91010 | 117.37453 | 29912 ft | 436 kts | 249° |
| 2026-05-06 01:18 | -7.93172 | 117.31736 | 29918 ft | 436 kts | 248° |
| 2026-05-06 01:19 | -7.95344 | 117.26026 | 29912 ft | 436 kts | 249° |
| 2026-05-06 01:19 | -7.97499 | 117.20312 | 29918 ft | 436 kts | 249° |
| 2026-05-06 01:20 | -7.99665 | 117.14637 | 29919 ft | 436 kts | 249° |
| 2026-05-06 01:20 | -8.01826 | 117.08927 | 29920 ft | 435 kts | 249° |
| 2026-05-06 01:21 | -8.03981 | 117.03222 | 29916 ft | 435 kts | 249° |
| 2026-05-06 01:21 | -8.05345 | 116.97299 | 29919 ft | 436 kts | 269° |
| 2026-05-06 01:22 | -8.04446 | 116.91242 | 29921 ft | 439 kts | 284° |
| 2026-05-06 01:22 | -8.02578 | 116.85371 | 29919 ft | 440 kts | 288° |
| 2026-05-06 01:23 | -8.00527 | 116.79588 | 29922 ft | 440 kts | 288° |
| 2026-05-06 01:23 | -7.98491 | 116.73759 | 29921 ft | 440 kts | 288° |
| 2026-05-06 01:24 | -7.96474 | 116.67887 | 29912 ft | 440 kts | 287° |
| 2026-05-06 01:24 | -7.94508 | 116.62073 | 29920 ft | 441 kts | 288° |
| 2026-05-06 01:25 | -7.92532 | 116.56219 | 29917 ft | 441 kts | 287° |
| 2026-05-06 01:25 | -7.90553 | 116.50366 | 29914 ft | 441 kts | 288° |
| 2026-05-06 01:26 | -7.88551 | 116.44520 | 29917 ft | 441 kts | 288° |
| 2026-05-06 01:26 | -7.86557 | 116.38669 | 29917 ft | 441 kts | 287° |
| 2026-05-06 01:27 | -7.84573 | 116.32810 | 29917 ft | 441 kts | 287° |
| 2026-05-06 01:27 | -7.83247 | 116.26810 | 29921 ft | 438 kts | 274° |
| 2026-05-06 01:28 | -7.83185 | 116.20675 | 29917 ft | 438 kts | 267° |
| 2026-05-06 01:28 | -7.83530 | 116.14574 | 29916 ft | 438 kts | 265° |
| 2026-05-06 01:29 | -7.83892 | 116.08430 | 29912 ft | 439 kts | 266° |
| 2026-05-06 01:29 | -7.84191 | 116.02274 | 29918 ft | 440 kts | 266° |
| 2026-05-06 01:30 | -7.84458 | 115.96112 | 29918 ft | 440 kts | 266° |
| 2026-05-06 01:30 | -7.84765 | 115.89949 | 29918 ft | 440 kts | 266° |
| 2026-05-06 01:31 | -7.85037 | 115.83776 | 29916 ft | 440 kts | 266° |
| 2026-05-06 01:31 | -7.85332 | 115.77617 | 29902 ft | 440 kts | 266° |
| 2026-05-06 01:32 | -7.85609 | 115.71442 | 29897 ft | 440 kts | 266° |
| 2026-05-06 01:32 | -7.85915 | 115.65317 | 28994 ft | 435 kts | 266° |
| 2026-05-06 01:33 | -7.86052 | 115.62286 | 28154 ft | 429 kts | 266° |
| 2026-05-06 01:33 | -7.86186 | 115.59298 | 27362 ft | 423 kts | 266° |
| 2026-05-06 01:33 | -7.86315 | 115.56357 | 26723 ft | 418 kts | 266° |
| 2026-05-06 01:33 | -7.86448 | 115.53445 | 26070 ft | 414 kts | 267° |
| 2026-05-06 01:34 | -7.86588 | 115.50540 | 25297 ft | 413 kts | 266° |
| 2026-05-06 01:34 | -7.86732 | 115.47699 | 24541 ft | 409 kts | 266° |
| 2026-05-06 01:34 | -7.86884 | 115.44803 | 23799 ft | 406 kts | 267° |
| 2026-05-06 01:34 | -7.87014 | 115.42008 | 23003 ft | 403 kts | 268° |
| 2026-05-06 01:35 | -7.87135 | 115.39196 | 22234 ft | 398 kts | 268° |
| 2026-05-06 01:35 | -7.87250 | 115.36423 | 21530 ft | 392 kts | 268° |
| 2026-05-06 01:35 | -7.87368 | 115.33696 | 20822 ft | 388 kts | 267° |
| 2026-05-06 01:35 | -7.87508 | 115.30999 | 20117 ft | 383 kts | 267° |
| 2026-05-06 01:36 | -7.87635 | 115.28327 | 19453 ft | 379 kts | 268° |
| 2026-05-06 01:36 | -7.87746 | 115.25689 | 18799 ft | 375 kts | 267° |
| 2026-05-06 01:36 | -7.87870 | 115.23071 | 18164 ft | 371 kts | 267° |
| 2026-05-06 01:36 | -7.88004 | 115.20481 | 17415 ft | 368 kts | 266° |
| 2026-05-06 01:37 | -7.88132 | 115.17915 | 16679 ft | 365 kts | 265° |
| 2026-05-06 01:37 | -7.88707 | 115.15447 | 15953 ft | 360 kts | 244° |
| 2026-05-06 01:37 | -7.89963 | 115.13283 | 15289 ft | 356 kts | 236° |
| 2026-05-06 01:37 | -7.91330 | 115.11223 | 14711 ft | 351 kts | 234° |
| 2026-05-06 01:38 | -7.92716 | 115.09203 | 14166 ft | 348 kts | 233° |
| 2026-05-06 01:38 | -7.94118 | 115.07225 | 13569 ft | 345 kts | 232° |
| 2026-05-06 01:38 | -7.95512 | 115.05268 | 13387 ft | 349 kts | 232° |
| 2026-05-06 01:38 | -7.96942 | 115.03253 | 13395 ft | 348 kts | 232° |
| 2026-05-06 01:39 | -7.98316 | 115.01298 | 13281 ft | 345 kts | 233° |
| 2026-05-06 01:39 | -7.99699 | 114.99290 | 13025 ft | 344 kts | 233° |
| 2026-05-06 01:39 | -8.01178 | 114.97442 | 12729 ft | 341 kts | 219° |
| 2026-05-06 01:39 | -8.03226 | 114.96298 | 12460 ft | 337 kts | 194° |
| 2026-05-06 01:40 | -8.05533 | 114.96109 | 12208 ft | 333 kts | 171° |
| 2026-05-06 01:40 | -8.07769 | 114.96653 | 11968 ft | 330 kts | 164° |
| 2026-05-06 01:40 | -8.10015 | 114.97146 | 11728 ft | 331 kts | 169° |
| 2026-05-06 01:40 | -8.12301 | 114.97421 | 11512 ft | 331 kts | 174° |
| 2026-05-06 01:41 | -8.14592 | 114.97510 | 11319 ft | 330 kts | 178° |
| 2026-05-06 01:41 | -8.16887 | 114.97458 | 11113 ft | 330 kts | 181° |
| 2026-05-06 01:41 | -8.19181 | 114.97309 | 10898 ft | 330 kts | 182° |
| 2026-05-06 01:41 | -8.21465 | 114.97098 | 10717 ft | 330 kts | 184° |
| 2026-05-06 01:42 | -8.23751 | 114.96852 | 10515 ft | 329 kts | 184° |
| 2026-05-06 01:42 | -8.26028 | 114.96593 | 10337 ft | 329 kts | 184° |
| 2026-05-06 01:42 | -8.28271 | 114.96327 | 10158 ft | 329 kts | 184° |
| 2026-05-06 01:42 | -8.30575 | 114.96064 | 9986 ft | 329 kts | 184° |
| 2026-05-06 01:43 | -8.32818 | 114.95815 | 9837 ft | 328 kts | 184° |
| 2026-05-06 01:43 | -8.35113 | 114.95561 | 9656 ft | 327 kts | 184° |
| 2026-05-06 01:43 | -8.37347 | 114.95317 | 9503 ft | 326 kts | 184° |
| 2026-05-06 01:43 | -8.39599 | 114.95072 | 9353 ft | 326 kts | 184° |
| 2026-05-06 01:44 | -8.41855 | 114.94829 | 9182 ft | 325 kts | 184° |
| 2026-05-06 01:44 | -8.44103 | 114.94586 | 9024 ft | 324 kts | 184° |
| 2026-05-06 01:44 | -8.46298 | 114.94345 | 8835 ft | 308 kts | 184° |
| 2026-05-06 01:44 | -8.48376 | 114.94118 | 8620 ft | 292 kts | 184° |
| 2026-05-06 01:45 | -8.49695 | 114.93973 | 8481 ft | 284 kts | 184° |
| 2026-05-06 01:45 | -8.51617 | 114.93761 | 8269 ft | 272 kts | 184° |
| 2026-05-06 01:45 | -8.53497 | 114.93551 | 8004 ft | 271 kts | 184° |
| 2026-05-06 01:45 | -8.55376 | 114.93342 | 7730 ft | 272 kts | 184° |
| 2026-05-06 01:46 | -8.57259 | 114.93148 | 7461 ft | 272 kts | 183° |
| 2026-05-06 01:46 | -8.59133 | 114.92976 | 7205 ft | 266 kts | 183° |
| 2026-05-06 01:46 | -8.60944 | 114.92809 | 6863 ft | 260 kts | 182° |
| 2026-05-06 01:46 | -8.62749 | 114.92627 | 6273 ft | 263 kts | 182° |
| 2026-05-06 01:47 | -8.64590 | 114.92407 | 5649 ft | 268 kts | 184° |
| 2026-05-06 01:47 | -8.66420 | 114.92132 | 5247 ft | 262 kts | 187° |
| 2026-05-06 01:47 | -8.68184 | 114.91789 | 4938 ft | 254 kts | 189° |
| 2026-05-06 01:47 | -8.69892 | 114.91364 | 4456 ft | 253 kts | 192° |
| 2026-05-06 01:48 | -8.71592 | 114.90830 | 3846 ft | 259 kts | 196° |
| 2026-05-06 01:48 | -8.73271 | 114.90173 | 3380 ft | 257 kts | 200° |
| 2026-05-06 01:48 | -8.74833 | 114.89410 | 3079 ft | 248 kts | 205° |
| 2026-05-06 01:48 | -8.76321 | 114.88505 | 2676 ft | 245 kts | 210° |
| 2026-05-06 01:49 | -8.77765 | 114.87505 | 1903 ft | 258 kts | 210° |
| 2026-05-06 01:49 | -8.79268 | 114.86565 | 1672 ft | 243 kts | 205° |
| 2026-05-06 01:49 | -8.80944 | 114.85739 | 894 ft | 254 kts | 198° |
| 2026-05-06 01:49 | -8.82492 | 114.85264 | 1301 ft | 209 kts | 186° |
| 2026-05-06 01:50 | -8.83854 | 114.85178 | 1354 ft | 186 kts | 169° |
| 2026-05-06 01:50 | -8.84971 | 114.85538 | 1532 ft | 152 kts | 142° |
| 2026-05-06 01:50 | -8.85810 | 114.86255 | 994 ft | 169 kts | 133° |
| 2026-05-06 01:50 | -8.86682 | 114.87218 | 304 ft | 192 kts | 121° |
| 2026-05-06 01:51 | -8.87062 | 114.88440 | 253 ft | 173 kts | 95° |
| 2026-05-06 01:51 | -8.86853 | 114.89574 | 208 ft | 159 kts | 71° |
| 2026-05-06 01:51 | -8.86371 | 114.90519 | 137 ft | 149 kts | 60° |
| 2026-05-06 01:51 | -8.86049 | 114.91007 | 7 ft | 0 kts | 58° |
| 2026-05-06 01:52 | -8.86049 | 114.91006 | 7 ft | 0 kts | 68° |
| 2026-05-06 01:52 | -8.86049 | 114.91007 | 6 ft | 0 kts | 71° |
| 2026-05-06 01:53 | -8.86049 | 114.91006 | 7 ft | 0 kts | 73° |
| 2026-05-06 01:53 | -8.86049 | 114.91007 | 6 ft | 0 kts | 79° |
| 2026-05-06 01:54 | -8.86017 | 114.91200 | 520 ft | 253 kts | 82° |
| 2026-05-06 01:54 | -8.85756 | 114.92875 | 1031 ft | 231 kts | 84° |
| 2026-05-06 01:54 | -8.85600 | 114.94409 | 1546 ft | 220 kts | 84° |
| 2026-05-06 01:54 | -8.85402 | 114.95915 | 2031 ft | 213 kts | 83° |
| 2026-05-06 01:55 | -8.85193 | 114.97361 | 2465 ft | 207 kts | 83° |
| 2026-05-06 01:55 | -8.84979 | 114.98787 | 2866 ft | 204 kts | 79° |
| 2026-05-06 01:55 | -8.84444 | 115.00081 | 2849 ft | 201 kts | 57° |
| 2026-05-06 01:55 | -8.83371 | 115.01051 | 2626 ft | 216 kts | 36° |
| 2026-05-06 01:56 | -8.82039 | 115.01814 | 2423 ft | 221 kts | 31° |
| 2026-05-06 01:56 | -8.80705 | 115.02575 | 2247 ft | 218 kts | 35° |
| 2026-05-06 01:56 | -8.79449 | 115.03416 | 2012 ft | 217 kts | 39° |
| 2026-05-06 01:56 | -8.78305 | 115.04406 | 1759 ft | 215 kts | 50° |
| 2026-05-06 01:57 | -8.77342 | 115.05546 | 1523 ft | 213 kts | 56° |
| 2026-05-06 01:57 | -8.76448 | 115.06739 | 1285 ft | 212 kts | 58° |
| 2026-05-06 01:57 | -8.75643 | 115.07979 | 1112 ft | 210 kts | 62° |
| 2026-05-06 01:57 | -8.75053 | 115.09229 | 1318 ft | 178 kts | 76° |
| 2026-05-06 01:58 | -8.74941 | 115.10336 | 1178 ft | 148 kts | 91° |
| 2026-05-06 01:58 | -8.74997 | 115.11326 | 863 ft | 130 kts | 95° |
| 2026-05-06 01:58 | -8.75021 | 115.12171 | 655 ft | 118 kts | 90° |
| 2026-05-06 01:58 | -8.74987 | 115.12960 | 395 ft | 111 kts | 90° |
| 2026-05-06 01:59 | -8.74966 | 115.13802 | 350 ft | 124 kts | 90° |
| 2026-05-06 01:59 | -8.74927 | 115.14691 | 207 ft | 128 kts | 90° |
| 2026-05-06 01:59 | -8.74890 | 115.15587 | 56 ft | 127 kts | 89° |
| 2026-05-06 01:59 | -8.74862 | 115.16413 | 50 ft | 101 kts | 90° |
| 2026-05-06 02:00 | -8.74840 | 115.17103 | 58 ft | 107 kts | 90° |
| 2026-05-06 02:00 | -8.74828 | 115.18000 | 469 ft | 147 kts | 92° |
| 2026-05-06 02:00 | -8.74868 | 115.19150 | 1042 ft | 173 kts | 99° |
| 2026-05-06 02:00 | -8.75519 | 115.20109 | 1978 ft | 176 kts | 150° |
| 2026-05-06 02:01 | -8.76815 | 115.20258 | 2250 ft | 205 kts | 189° |
| 2026-05-06 02:01 | -8.78030 | 115.19475 | 2173 ft | 214 kts | 226° |
| 2026-05-06 02:01 | -8.78409 | 115.18017 | 1634 ft | 230 kts | 276° |
| 2026-05-06 02:01 | -8.77935 | 115.16519 | 1540 ft | 205 kts | 290° |
| 2026-05-06 02:02 | -8.77447 | 115.15227 | 1564 ft | 192 kts | 292° |
| 2026-05-06 02:02 | -8.76999 | 115.13954 | 1340 ft | 195 kts | 286° |
| 2026-05-06 02:02 | -8.76419 | 115.12835 | 1238 ft | 172 kts | 322° |
| 2026-05-06 02:02 | -8.75321 | 115.12496 | 907 ft | 170 kts | 6° |
| 2026-05-06 02:03 | -8.74433 | 115.13048 | 749 ft | 148 kts | 77° |
| 2026-05-06 02:03 | -8.74735 | 115.14006 | 438 ft | 150 kts | 120° |
| 2026-05-06 02:03 | -8.74924 | 115.14942 | 167 ft | 132 kts | 90° |
| 2026-05-06 02:03 | -8.74883 | 115.15826 | 42 ft | 117 kts | 90° |
| 2026-05-06 02:04 | -8.74851 | 115.16569 | 32 ft | 93 kts | 91° |
| 2026-05-06 02:04 | -8.74826 | 115.17104 | 28 ft | 59 kts | 86° |
| 2026-05-06 02:04 | -8.74887 | 115.17258 | 29 ft | 16 kts | 197° |
| 2026-05-06 02:04 | -8.74970 | 115.17220 | 32 ft | 11 kts | 250° |
| 2026-05-06 02:05 | -8.74990 | 115.17151 | 32 ft | 10 kts | 263° |
| 2026-05-06 02:05 | -8.74993 | 115.17080 | 32 ft | 10 kts | 268° |
| 2026-05-06 02:05 | -8.74996 | 115.17007 | 32 ft | 10 kts | 265° |
| 2026-05-06 02:05 | -8.75000 | 115.16935 | 32 ft | 10 kts | 275° |
| 2026-05-06 02:06 | -8.75002 | 115.16862 | 32 ft | 9 kts | 265° |
| 2026-05-06 02:06 | -8.75029 | 115.16842 | 33 ft | 4 kts | 181° |
| 2026-05-06 02:06 | -8.75050 | 115.16842 | 33 ft | 2 kts | 179° |
| 2026-05-06 02:06 | -8.75062 | 115.16843 | 33 ft | 1 kts | 176° |
| 2026-05-06 02:07 | -8.75070 | 115.16843 | 33 ft | 1 kts | 177° |
| 2026-05-06 02:07 | -8.75076 | 115.16844 | 33 ft | 1 kts | 177° |
| 2026-05-06 02:07 | -8.75077 | 115.16844 | 33 ft | 0 kts | 177° |
| 2026-05-06 02:20 | -8.75076 | 115.16844 | 33 ft | 0 kts | 177° |